Time;durP1;ratioP1;P1;durP2;ratioP2;P2;SDS_P1;SDS_P2;PMS_P1;PMS_P2;Temp;Humidity;BMP_temperature;BMP_pressure;BME280_temperature;BME280_humidity;BME280_pressure;Samples;Min_cycle;Max_cycle;Signal;HPM_P1;HPM_P2
2023/03/06 00:00:21;;;;;;;1.05;0.20;;;18.20;58.70;;;;;;5029239;28;20064;-74
2023/03/06 00:02:48;;;;;;;0.70;0.10;;;18.10;58.70;;;;;;5038831;28;20041;-74
2023/03/06 00:05:16;;;;;;;1.27;0.20;;;18.10;58.80;;;;;;5050254;28;20060;-74
2023/03/06 00:07:43;;;;;;;0.68;0.20;;;18.10;58.80;;;;;;5050217;28;20048;-75
2023/03/06 00:10:14;;;;;;;0.75;0.10;;;18.00;58.80;;;;;;5050212;28;20068;-74
2023/03/06 00:12:41;;;;;;;0.75;0.17;;;18.00;58.80;;;;;;5047340;28;20045;-74
2023/03/06 00:15:10;;;;;;;0.80;0.10;;;18.00;58.90;;;;;;5050346;28;20406;-74
2023/03/06 00:17:38;;;;;;;0.82;0.10;;;18.00;58.90;;;;;;5050080;28;20041;-74
2023/03/06 00:20:06;;;;;;;0.55;0.10;;;18.00;59.00;;;;;;5050155;28;20110;-74
2023/03/06 00:22:34;;;;;;;1.08;0.10;;;17.90;58.90;;;;;;5050270;28;20071;-74
2023/03/06 00:25:01;;;;;;;0.98;0.20;;;17.90;59.00;;;;;;5050100;28;20057;-74
2023/03/06 00:27:27;;;;;;;1.33;0.20;;;17.90;59.10;;;;;;5047636;28;20117;-74
2023/03/06 00:29:55;;;;;;;1.48;0.20;;;17.80;59.70;;;;;;5048234;28;20056;-74
2023/03/06 00:32:26;;;;;;;1.67;0.25;;;17.80;59.10;;;;;;5047891;28;20118;-74
2023/03/06 00:34:55;;;;;;;1.13;0.20;;;17.80;59.20;;;;;;5047998;28;20049;-74
2023/03/06 00:37:23;;;;;;;0.85;0.30;;;17.80;59.20;;;;;;5050154;28;20107;-74
2023/03/06 00:39:50;;;;;;;0.88;0.25;;;17.70;59.20;;;;;;5048627;28;20052;-74
2023/03/06 00:42:17;;;;;;;0.70;0.10;;;17.70;60.00;;;;;;5048409;28;20056;-74
2023/03/06 00:44:44;;;;;;;1.08;0.47;;;17.70;59.30;;;;;;5049778;28;20057;-74
2023/03/06 00:47:12;;;;;;;0.80;0.10;;;17.70;59.30;;;;;;5045191;28;20064;-74
2023/03/06 00:49:40;;;;;;;0.68;0.20;;;17.60;59.30;;;;;;5029871;28;20057;-74
2023/03/06 00:52:07;;;;;;;0.70;0.20;;;17.70;59.30;;;;;;5030012;28;20767;-74
2023/03/06 00:54:34;;;;;;;0.82;0.20;;;17.60;59.40;;;;;;5048608;28;20155;-74
2023/03/06 00:57:01;;;;;;;1.20;0.30;;;17.60;60.10;;;;;;5045470;28;20514;-74
2023/03/06 00:59:28;;;;;;;0.82;0.20;;;17.60;59.40;;;;;;5038723;28;20068;-74
2023/03/06 01:01:55;;;;;;;0.65;0.10;;;17.50;59.40;;;;;;5049841;28;20074;-74
2023/03/06 01:04:22;;;;;;;0.70;0.17;;;17.50;59.50;;;;;;5049235;28;20052;-74
2023/03/06 01:06:50;;;;;;;1.27;0.13;;;17.50;59.50;;;;;;5046588;28;20057;-74
2023/03/06 01:09:17;;;;;;;0.60;0.10;;;17.50;59.50;;;;;;5048362;28;20405;-74
2023/03/06 01:11:44;;;;;;;0.98;0.35;;;17.50;59.60;;;;;;5051456;28;20406;-74
2023/03/06 01:14:11;;;;;;;1.67;0.22;;;17.40;59.50;;;;;;5051720;28;20061;-74
2023/03/06 01:16:38;;;;;;;1.33;0.10;;;17.50;59.70;;;;;;5049356;28;20049;-74
2023/03/06 01:19:05;;;;;;;0.82;0.10;;;17.40;59.60;;;;;;5032834;28;20054;-74
2023/03/06 01:21:32;;;;;;;0.75;0.32;;;17.40;59.60;;;;;;5032639;28;20053;-74
2023/03/06 01:24:00;;;;;;;0.63;0.10;;;17.40;59.70;;;;;;5031475;28;20049;-74
2023/03/06 01:26:27;;;;;;;0.80;0.17;;;17.40;59.70;;;;;;5032972;28;20045;-74
2023/03/06 01:28:56;;;;;;;1.75;0.10;;;17.40;59.70;;;;;;5033012;28;20132;-74
2023/03/06 01:31:23;;;;;;;1.25;0.10;;;17.40;59.60;;;;;;5044510;28;20053;-74
2023/03/06 01:33:50;;;;;;;0.85;0.17;;;17.40;60.20;;;;;;5052968;28;20064;-74
2023/03/06 01:36:17;;;;;;;0.57;0.10;;;17.50;59.60;;;;;;5050530;28;20056;-74
2023/03/06 01:38:44;;;;;;;0.68;0.20;;;17.50;59.60;;;;;;5037124;28;20054;-74
2023/03/06 01:41:14;;;;;;;0.90;0.13;;;17.50;59.50;;;;;;5031607;28;20506;-74
2023/03/06 01:43:43;;;;;;;0.60;0.10;;;17.60;59.50;;;;;;5034818;28;20053;-74
2023/03/06 01:46:31;;;;;;;0.75;0.30;;;17.60;59.50;;;;;;5048215;28;20045;-74
2023/03/06 01:49:01;;;;;;;0.63;0.20;;;17.70;59.40;;;;;;5051037;28;20049;-74
2023/03/06 01:51:32;;;;;;;0.95;0.10;;;17.70;59.20;;;;;;5051433;28;20060;-74
2023/03/06 01:54:02;;;;;;;0.65;0.10;;;17.70;59.20;;;;;;5033985;28;20046;-74
2023/03/06 01:56:30;;;;;;;0.60;0.10;;;17.80;59.30;;;;;;5032427;28;20057;-74
2023/03/06 01:58:59;;;;;;;0.82;0.52;;;17.80;59.30;;;;;;5031223;28;20080;-74
2023/03/06 02:01:27;;;;;;;1.25;0.10;;;17.80;59.20;;;;;;5043328;28;20082;-74
2023/03/06 02:03:55;;;;;;;1.02;0.43;;;17.90;59.20;;;;;;5049993;28;20102;-74
2023/03/06 02:06:22;;;;;;;0.70;0.10;;;17.90;59.10;;;;;;5051213;28;20135;-74
2023/03/06 02:08:51;;;;;;;0.75;0.30;;;18.00;59.00;;;;;;5052321;28;20060;-74
2023/03/06 02:11:21;;;;;;;0.80;0.40;;;18.00;58.90;;;;;;5042415;28;20053;-74
2023/03/06 02:13:52;;;;;;;0.70;0.32;;;18.00;58.80;;;;;;5050649;28;20072;-74
2023/03/06 02:16:24;;;;;;;1.52;0.35;;;18.00;58.80;;;;;;5052147;28;20045;-74
2023/03/06 02:18:52;;;;;;;0.50;0.03;;;18.00;58.80;;;;;;5050786;28;20064;-74
2023/03/06 02:21:23;;;;;;;0.40;0.10;;;18.00;58.80;;;;;;5049800;28;20052;-74
2023/03/06 02:23:59;;;;;;;0.60;0.10;;;18.00;58.80;;;;;;5035131;28;20156;-74
2023/03/06 02:26:29;;;;;;;0.50;0.10;;;18.00;58.90;;;;;;5050580;28;20092;-74
2023/03/06 02:28:58;;;;;;;;;;;18.00;58.90;;;;;;5051021;28;20509;-74
2023/03/06 02:31:27;;;;;;;0.60;0.10;;;18.00;59.00;;;;;;5050765;28;19944;-74
2023/03/06 02:34:07;;;;;;;0.38;0.03;;;18.00;59.00;;;;;;5050880;28;20052;-74
2023/03/06 02:36:38;;;;;;;0.70;0.30;;;18.00;59.70;;;;;;5051415;28;20520;-74
2023/03/06 02:39:06;;;;;;;0.73;0.30;;;17.90;59.10;;;;;;5044078;28;20129;-74
2023/03/06 02:41:34;;;;;;;0.73;0.10;;;17.90;59.10;;;;;;5031675;28;20053;-74
2023/03/06 02:44:01;;;;;;;0.32;0.28;;;17.90;59.10;;;;;;5031675;28;20115;-74
2023/03/06 02:46:28;;;;;;;1.05;0.25;;;17.90;59.10;;;;;;5044442;28;20465;-74
2023/03/06 02:48:55;;;;;;;0.45;0.13;;;17.90;59.30;;;;;;5030131;28;20894;-74
2023/03/06 02:51:22;;;;;;;0.63;0.15;;;17.90;59.30;;;;;;5032436;28;20057;-74
2023/03/06 02:53:49;;;;;;;0.73;0.10;;;17.80;59.30;;;;;;5043191;28;20056;-74
2023/03/06 02:56:18;;;;;;;0.65;0.13;;;17.80;59.40;;;;;;5051207;28;20128;-74
2023/03/06 02:58:46;;;;;;;0.45;0.10;;;17.80;59.40;;;;;;5048512;28;20049;-74
2023/03/06 03:01:13;;;;;;;0.40;0.10;;;17.70;59.40;;;;;;5030142;28;20041;-74
2023/03/06 03:03:40;;;;;;;0.85;0.30;;;17.70;59.50;;;;;;5030295;28;20053;-74
2023/03/06 03:06:07;;;;;;;0.40;0.13;;;17.70;59.60;;;;;;5031162;28;20050;-74
2023/03/06 03:08:34;;;;;;;0.38;0.10;;;17.60;60.20;;;;;;5029947;28;20057;-74
2023/03/06 03:11:02;;;;;;;0.47;0.10;;;17.70;59.60;;;;;;5033215;28;20434;-74
2023/03/06 03:13:29;;;;;;;0.40;0.08;;;17.60;59.60;;;;;;5050822;28;20714;-74
2023/03/06 03:16:02;;;;;;;0.68;0.15;;;17.60;59.60;;;;;;5046721;28;20486;-74
2023/03/06 03:18:29;;;;;;;0.30;0.13;;;17.60;59.70;;;;;;5038130;28;20060;-74
2023/03/06 03:20:56;;;;;;;0.77;0.10;;;17.50;59.70;;;;;;5048766;28;20422;-74
2023/03/06 03:23:24;;;;;;;0.50;0.05;;;17.50;59.80;;;;;;5051861;28;20048;-73
2023/03/06 03:25:51;;;;;;;0.60;0.10;;;17.50;59.70;;;;;;5048879;28;20061;-74
2023/03/06 03:28:19;;;;;;;0.50;0.10;;;17.50;59.80;;;;;;5051632;28;20045;-74
2023/03/06 03:30:46;;;;;;;0.43;0.10;;;17.50;59.80;;;;;;5034173;28;20057;-74
2023/03/06 03:33:14;;;;;;;0.43;0.15;;;17.50;60.40;;;;;;5030938;28;20069;-74
2023/03/06 03:35:41;;;;;;;0.70;0.10;;;17.40;59.80;;;;;;5030843;28;20068;-74
2023/03/06 03:38:08;;;;;;;0.47;0.20;;;17.50;59.90;;;;;;5030647;28;20049;-74
2023/03/06 03:40:35;;;;;;;0.68;0.00;;;17.40;59.90;;;;;;5037145;28;20049;-74
2023/03/06 03:43:02;;;;;;;0.70;0.20;;;17.40;59.90;;;;;;5029122;28;20061;-74
2023/03/06 03:45:29;;;;;;;0.45;0.22;;;17.40;60.00;;;;;;5030756;28;20049;-74
2023/03/06 03:47:56;;;;;;;0.55;0.15;;;17.40;59.90;;;;;;5043759;28;20062;-74
2023/03/06 03:50:24;;;;;;;0.98;0.20;;;17.40;59.90;;;;;;5048928;28;20048;-74
2023/03/06 03:52:51;;;;;;;0.55;0.15;;;17.40;59.90;;;;;;5050378;28;20461;-74
2023/03/06 03:55:18;;;;;;;0.50;0.10;;;17.40;59.80;;;;;;5050491;28;20045;-74
2023/03/06 03:57:45;;;;;;;0.70;0.20;;;17.40;59.90;;;;;;5048989;28;20501;-74
2023/03/06 04:00:15;;;;;;;0.63;0.10;;;17.50;59.80;;;;;;5048322;28;20052;-74
2023/03/06 04:02:43;;;;;;;0.73;0.13;;;17.50;59.70;;;;;;5040676;28;20061;-74
2023/03/06 04:05:12;;;;;;;0.55;0.15;;;17.50;59.70;;;;;;5029155;28;20056;-74
2023/03/06 04:07:41;;;;;;;0.47;0.13;;;17.60;59.70;;;;;;5028888;28;20053;-74
2023/03/06 04:10:10;;;;;;;0.95;0.10;;;17.70;59.70;;;;;;5030142;28;20057;-74
2023/03/06 04:12:37;;;;;;;0.45;0.17;;;17.70;59.50;;;;;;5039959;28;20049;-74
2023/03/06 04:15:05;;;;;;;0.90;0.10;;;17.70;59.40;;;;;;5041960;28;20135;-75
2023/03/06 04:17:33;;;;;;;0.63;0.10;;;17.80;59.30;;;;;;5037631;28;20419;-74
2023/03/06 04:20:03;;;;;;;0.52;0.15;;;17.90;59.20;;;;;;5049636;28;20053;-74
2023/03/06 04:22:30;;;;;;;0.65;0.40;;;17.90;59.10;;;;;;5043911;28;20107;-74
2023/03/06 04:24:58;;;;;;;0.65;0.20;;;17.90;59.00;;;;;;5048389;28;20064;-74
2023/03/06 04:27:25;;;;;;;0.70;0.15;;;18.00;59.10;;;;;;5047518;28;20063;-74
2023/03/06 04:29:55;;;;;;;0.50;0.00;;;18.00;59.10;;;;;;5050171;28;20045;-74
2023/03/06 04:32:22;;;;;;;0.50;0.20;;;18.00;59.20;;;;;;5034516;28;20111;-74
2023/03/06 04:34:48;;;;;;;0.70;0.10;;;17.90;59.00;;;;;;5030275;28;20053;-74
2023/03/06 04:37:19;;;;;;;0.45;0.10;;;17.90;59.10;;;;;;5033770;28;20053;-74
2023/03/06 04:39:46;;;;;;;0.85;0.05;;;17.90;59.10;;;;;;5035605;28;20481;-74
2023/03/06 04:42:14;;;;;;;0.77;0.10;;;17.90;59.10;;;;;;5044407;28;20486;-74
2023/03/06 04:44:42;;;;;;;0.70;0.10;;;17.90;59.30;;;;;;5044810;28;20490;-74
2023/03/06 04:47:09;;;;;;;0.90;0.13;;;17.90;59.20;;;;;;5051668;28;20045;-74
2023/03/06 04:49:36;;;;;;;0.55;0.10;;;17.90;59.30;;;;;;5053331;28;20052;-75
2023/03/06 04:52:03;;;;;;;0.75;0.10;;;17.80;59.30;;;;;;5048234;28;20509;-74
2023/03/06 04:54:30;;;;;;;0.63;0.10;;;17.80;59.30;;;;;;5043859;28;20057;-74
2023/03/06 04:56:57;;;;;;;0.45;0.10;;;17.80;59.30;;;;;;5033448;28;20391;-74
2023/03/06 04:59:26;;;;;;;0.40;0.10;;;17.80;59.40;;;;;;5034601;28;20061;-74
2023/03/06 05:01:53;;;;;;;0.50;0.10;;;17.70;59.40;;;;;;5046521;28;20214;-74
2023/03/06 05:04:20;;;;;;;0.57;0.13;;;17.70;59.50;;;;;;5052693;28;20485;-74
2023/03/06 05:06:46;;;;;;;0.95;0.10;;;17.70;59.50;;;;;;5051668;28;20045;-74
2023/03/06 05:09:13;;;;;;;0.30;0.10;;;17.70;59.60;;;;;;5053060;28;20056;-74
2023/03/06 05:11:40;;;;;;;0.30;0.10;;;17.60;59.50;;;;;;5031802;28;20761;-74
2023/03/06 05:14:07;;;;;;;0.38;0.00;;;17.60;59.60;;;;;;5048722;28;20064;-74
2023/03/06 05:16:36;;;;;;;0.63;0.00;;;17.60;59.70;;;;;;5048440;28;20042;-74
2023/03/06 05:19:03;;;;;;;0.40;0.10;;;17.60;59.70;;;;;;5042374;28;20049;-74
2023/03/06 05:21:30;;;;;;;0.63;0.10;;;17.60;60.30;;;;;;5047817;28;20060;-74
2023/03/06 05:23:56;;;;;;;0.35;0.10;;;17.50;59.70;;;;;;5048083;28;20053;-74
2023/03/06 05:26:23;;;;;;;0.22;0.10;;;17.50;59.70;;;;;;5039230;28;20041;-74
2023/03/06 05:28:50;;;;;;;0.38;0.10;;;17.50;59.70;;;;;;5042759;28;20045;-74
2023/03/06 05:31:17;;;;;;;0.40;0.10;;;17.50;59.80;;;;;;5047266;28;20056;-74
2023/03/06 05:33:46;;;;;;;0.38;0.20;;;17.50;59.80;;;;;;5037465;28;20061;-74
2023/03/06 05:36:12;;;;;;;0.20;0.00;;;17.40;59.70;;;;;;5044672;28;20049;-74
2023/03/06 05:38:39;;;;;;;0.55;0.10;;;17.40;59.80;;;;;;5051362;28;20045;-74
2023/03/06 05:41:06;;;;;;;0.98;0.20;;;17.40;59.90;;;;;;5044349;28;20422;-74
2023/03/06 05:43:33;;;;;;;0.22;0.00;;;17.40;59.90;;;;;;5037005;28;20387;-74
2023/03/06 05:46:02;;;;;;;0.40;0.10;;;17.40;59.80;;;;;;5032079;28;20053;-74
2023/03/06 05:48:29;;;;;;;0.40;0.10;;;17.40;59.80;;;;;;5032297;28;20126;-74
2023/03/06 05:50:58;;;;;;;0.80;0.13;;;17.40;59.80;;;;;;5034014;28;20060;-74
2023/03/06 05:53:25;;;;;;;0.43;0.30;;;17.40;59.70;;;;;;5031190;28;20053;-74
2023/03/06 05:55:57;;;;;;;0.30;0.10;;;17.50;59.80;;;;;;5031214;28;20053;-74
2023/03/06 05:58:24;;;;;;;0.90;0.10;;;17.50;59.70;;;;;;5033718;28;20074;-74
2023/03/06 06:00:51;;;;;;;0.57;0.28;;;17.50;59.70;;;;;;5050989;28;20048;-74
2023/03/06 06:03:18;;;;;;;0.30;0.10;;;17.50;59.50;;;;;;5047529;28;20128;-74
2023/03/06 06:05:45;;;;;;;0.40;0.25;;;17.60;59.50;;;;;;5053054;28;20049;-74
2023/03/06 06:08:13;;;;;;;0.40;0.05;;;17.70;59.50;;;;;;5049548;28;20061;-74
2023/03/06 06:10:40;;;;;;;0.60;0.15;;;17.70;60.00;;;;;;5050511;28;20132;-74
2023/03/06 06:13:07;;;;;;;0.30;0.30;;;17.80;59.30;;;;;;5051815;28;20049;-74
2023/03/06 06:15:34;;;;;;;0.35;0.10;;;17.80;59.20;;;;;;5047391;28;20412;-74
2023/03/06 06:18:01;;;;;;;0.35;0.00;;;17.90;59.10;;;;;;5050913;28;20064;-74
2023/03/06 06:20:28;;;;;;;0.60;0.25;;;18.00;59.10;;;;;;5050494;28;20055;-74
2023/03/06 06:22:55;;;;;;;0.52;0.13;;;18.00;58.90;;;;;;5051602;28;20044;-74
2023/03/06 06:25:24;;;;;;;0.28;0.10;;;18.10;58.80;;;;;;5051768;28;20040;-74
2023/03/06 06:27:53;;;;;;;0.57;0.40;;;18.10;58.80;;;;;;5051108;28;20045;-74
2023/03/06 06:30:21;;;;;;;0.50;0.10;;;18.10;58.70;;;;;;5032054;28;20407;-75
2023/03/06 06:32:48;;;;;;;0.57;0.10;;;18.10;58.70;;;;;;5036072;28;20049;-74
2023/03/06 06:35:15;;;;;;;0.50;0.13;;;18.20;58.70;;;;;;5051640;28;20049;-74
2023/03/06 06:37:42;;;;;;;0.45;0.20;;;18.10;58.70;;;;;;5051113;28;20037;-74
2023/03/06 06:40:10;;;;;;;0.50;0.10;;;18.10;58.80;;;;;;5050433;28;20052;-74
2023/03/06 06:42:38;;;;;;;0.20;0.00;;;18.10;58.80;;;;;;5046871;28;20057;-74
2023/03/06 06:45:06;;;;;;;0.52;0.10;;;18.10;58.90;;;;;;5031821;28;20782;-74
2023/03/06 06:47:35;;;;;;;0.40;0.10;;;18.10;58.90;;;;;;5038399;28;20510;-74
2023/03/06 06:50:02;;;;;;;0.35;0.13;;;18.10;58.90;;;;;;5042398;28;20103;-74
2023/03/06 06:52:29;;;;;;;0.30;0.08;;;18.00;58.90;;;;;;5051206;28;20049;-74
2023/03/06 06:54:56;;;;;;;0.30;0.00;;;18.00;59.00;;;;;;5048783;28;20061;-74
2023/03/06 06:57:23;;;;;;;0.40;0.10;;;18.00;59.00;;;;;;5037193;28;20060;-75
2023/03/06 06:59:52;;;;;;;1.10;0.22;;;18.00;59.10;;;;;;5049595;28;20049;-75
2023/03/06 07:02:19;;;;;;;0.60;0.10;;;17.90;59.10;;;;;;5037754;28;20041;-74
2023/03/06 07:04:46;;;;;;;0.20;0.17;;;17.90;59.10;;;;;;5050098;28;20071;-74
2023/03/06 07:07:12;;;;;;;0.40;0.15;;;17.90;59.30;;;;;;5048901;28;20048;-75
2023/03/06 07:09:39;;;;;;;0.30;0.10;;;17.90;59.20;;;;;;5033435;28;20049;-74
2023/03/06 07:12:07;;;;;;;0.28;0.13;;;17.90;59.30;;;;;;5038876;28;20080;-74
2023/03/06 07:14:36;;;;;;;0.60;0.13;;;17.80;59.30;;;;;;5047713;28;20076;-75
2023/03/06 07:17:04;;;;;;;0.28;0.00;;;17.80;59.30;;;;;;5047199;28;20052;-74
2023/03/06 07:19:31;;;;;;;0.60;0.30;;;17.80;59.40;;;;;;5031460;28;20124;-78
2023/03/06 07:21:59;;;;;;;0.35;0.13;;;17.80;59.50;;;;;;5049926;28;20056;-84
2023/03/06 07:24:26;;;;;;;0.80;0.15;;;17.80;59.60;;;;;;5047647;28;20569;-76
2023/03/06 07:26:53;;;;;;;0.82;0.20;;;17.70;59.70;;;;;;5049439;28;20095;-76
2023/03/06 07:29:20;;;;;;;0.80;0.13;;;17.70;59.70;;;;;;5045051;28;20045;-76
2023/03/06 07:31:47;;;;;;;0.55;0.03;;;17.70;60.30;;;;;;5035183;28;20057;-76
2023/03/06 07:34:15;;;;;;;0.30;0.00;;;17.70;59.80;;;;;;5031981;28;20148;-76
2023/03/06 07:36:43;;;;;;;1.23;0.00;;;17.70;59.80;;;;;;5037212;28;20072;-76
2023/03/06 07:39:10;;;;;;;1.30;0.03;;;17.70;59.80;;;;;;5038923;28;20049;-76
2023/03/06 07:41:37;;;;;;;0.50;0.00;;;17.70;59.80;;;;;;5032390;28;20060;-76
2023/03/06 07:44:04;;;;;;;1.35;0.00;;;17.70;59.90;;;;;;5045474;28;20049;-76
2023/03/06 07:46:31;;;;;;;1.05;0.10;;;17.70;59.90;;;;;;5029150;28;20045;-76
2023/03/06 07:48:58;;;;;;;0.68;0.10;;;17.70;59.90;;;;;;5029121;28;20100;-76
2023/03/06 07:51:26;;;;;;;0.75;0.10;;;17.70;59.90;;;;;;5032754;28;20059;-76
2023/03/06 07:53:53;;;;;;;0.32;0.10;;;17.70;59.90;;;;;;5049412;28;20057;-76
2023/03/06 07:56:20;;;;;;;1.40;0.00;;;17.70;60.00;;;;;;5039583;28;20486;-76
2023/03/06 07:58:48;;;;;;;1.00;0.22;;;17.70;60.00;;;;;;5048970;28;20474;-76
2023/03/06 08:01:16;;;;;;;0.55;0.10;;;17.70;60.00;;;;;;5048415;28;20053;-76
2023/03/06 08:03:43;;;;;;;1.15;0.13;;;17.70;60.00;;;;;;5037933;28;20522;-76
2023/03/06 08:06:12;;;;;;;0.40;0.20;;;17.70;60.00;;;;;;5033483;28;20053;-76
2023/03/06 08:08:43;;;;;;;0.85;0.20;;;17.70;60.00;;;;;;5030405;28;20049;-76
2023/03/06 08:11:12;;;;;;;0.30;0.10;;;17.70;60.00;;;;;;5030423;28;20061;-76
2023/03/06 08:13:40;;;;;;;0.32;0.10;;;17.70;60.00;;;;;;5028963;28;20494;-76
2023/03/06 08:16:07;;;;;;;1.20;0.03;;;17.70;60.00;;;;;;5033361;28;20054;-76
2023/03/06 08:18:35;;;;;;;0.70;0.13;;;17.70;60.00;;;;;;5030604;28;20053;-76
2023/03/06 08:21:03;;;;;;;0.30;0.00;;;17.70;60.00;;;;;;5029084;28;20045;-76
2023/03/06 08:23:31;;;;;;;0.28;0.05;;;17.70;60.00;;;;;;5049380;28;20060;-76
2023/03/06 08:26:01;;;;;;;0.90;0.28;;;17.70;60.00;;;;;;5043797;28;20099;-76
2023/03/06 08:28:28;;;;;;;0.50;0.10;;;17.70;60.00;;;;;;5046350;28;20042;-75
2023/03/06 08:30:55;;;;;;;0.63;0.17;;;17.70;60.10;;;;;;5032562;28;20061;-76
2023/03/06 08:33:23;;;;;;;0.55;0.10;;;17.70;60.10;;;;;;5033872;28;20049;-76
2023/03/06 08:35:50;;;;;;;0.45;0.00;;;17.60;60.10;;;;;;5043125;28;20140;-76
2023/03/06 08:38:17;;;;;;;0.32;0.10;;;17.70;60.10;;;;;;5051790;28;20062;-76
2023/03/06 08:40:44;;;;;;;0.40;0.00;;;17.60;60.10;;;;;;5047370;28;20048;-76
2023/03/06 08:43:12;;;;;;;0.40;0.00;;;17.60;60.10;;;;;;5033133;28;20491;-76
2023/03/06 08:45:39;;;;;;;0.95;0.20;;;17.60;60.20;;;;;;5038843;28;20047;-76
2023/03/06 08:48:06;;;;;;;0.40;0.10;;;17.60;60.20;;;;;;5035415;28;20067;-76
2023/03/06 08:50:33;;;;;;;0.75;0.00;;;17.60;60.20;;;;;;5033623;28;20057;-76
2023/03/06 08:53:00;;;;;;;0.30;0.10;;;17.60;60.20;;;;;;5049079;28;20045;-76
2023/03/06 08:55:27;;;;;;;0.50;0.10;;;17.60;60.20;;;;;;5050138;28;20533;-76
2023/03/06 08:57:55;;;;;;;0.50;0.20;;;17.60;60.20;;;;;;5032760;28;20048;-76
2023/03/06 09:00:24;;;;;;;0.25;0.00;;;17.60;60.10;;;;;;5032505;28;20510;-76
2023/03/06 09:02:51;;;;;;;0.55;0.10;;;17.60;60.70;;;;;;5047775;28;20525;-76
2023/03/06 09:05:18;;;;;;;0.75;0.20;;;17.60;60.10;;;;;;5052771;28;20041;-76
2023/03/06 09:07:45;;;;;;;0.30;0.10;;;17.60;60.10;;;;;;5053315;28;20048;-75
2023/03/06 09:10:14;;;;;;;0.20;0.00;;;17.60;60.10;;;;;;5053231;28;20080;-76
2023/03/06 09:12:42;;;;;;;0.45;0.10;;;17.60;60.10;;;;;;5051861;28;20052;-76
2023/03/06 09:15:10;;;;;;;0.40;0.10;;;17.60;60.10;;;;;;5052774;28;20049;-75
2023/03/06 09:17:39;;;;;;;0.40;0.08;;;17.60;60.10;;;;;;5032055;28;20422;-76
2023/03/06 09:20:07;;;;;;;0.50;0.20;;;17.60;60.70;;;;;;5037531;28;20045;-75
2023/03/06 09:22:35;;;;;;;0.50;0.10;;;17.60;60.10;;;;;;5039005;28;20049;-75
2023/03/06 09:25:03;;;;;;;0.73;0.10;;;17.60;60.10;;;;;;5046856;28;20051;-75
2023/03/06 09:27:30;;;;;;;0.60;0.10;;;17.70;60.10;;;;;;5048314;28;20060;-75
2023/03/06 09:29:57;;;;;;;0.68;0.30;;;17.70;60.10;;;;;;5032449;28;20061;-75
2023/03/06 09:32:24;;;;;;;0.50;0.13;;;17.70;60.10;;;;;;5050440;28;20061;-75
2023/03/06 09:34:53;;;;;;;0.57;0.05;;;17.70;60.00;;;;;;5033577;28;20383;-75
2023/03/06 09:37:20;;;;;;;0.63;0.15;;;17.70;60.00;;;;;;5048273;28;20052;-75
2023/03/06 09:39:46;;;;;;;0.63;0.03;;;17.80;60.00;;;;;;5048454;28;20041;-75
2023/03/06 09:42:17;;;;;;;0.30;0.10;;;17.80;60.00;;;;;;5030898;28;20053;-75
2023/03/06 09:44:50;;;;;;;1.05;0.00;;;17.70;59.90;;;;;;5032451;28;20053;-75
2023/03/06 09:47:38;;;;;;;0.20;0.00;;;17.70;59.90;;;;;;5033495;28;20469;-75
2023/03/06 09:50:32;;;;;;;0.63;0.10;;;17.80;60.00;;;;;;5035528;28;20060;-75
2023/03/06 09:53:15;;;;;;;0.50;0.00;;;17.80;60.00;;;;;;5032577;28;20071;-75
2023/03/06 09:55:46;;;;;;;0.60;0.10;;;17.80;60.00;;;;;;5031528;28;20049;-75
2023/03/06 09:58:18;;;;;;;0.10;0.00;;;17.80;59.90;;;;;;5052573;28;20052;-75
2023/03/06 10:00:53;;;;;;;0.52;0.10;;;17.80;60.00;;;;;;5051006;28;20056;-75
2023/03/06 10:03:26;;;;;;;0.20;0.00;;;17.80;59.90;;;;;;5032378;28;20057;-75
2023/03/06 10:06:02;;;;;;;0.30;0.00;;;17.80;59.90;;;;;;5033105;28;20041;-75
2023/03/06 10:08:37;;;;;;;0.60;0.20;;;17.80;59.90;;;;;;5031096;28;20061;-75
2023/03/06 10:11:08;;;;;;;0.30;0.10;;;17.80;60.00;;;;;;5050213;28;20049;-74
2023/03/06 10:13:40;;;;;;;0.30;0.10;;;17.80;60.00;;;;;;5051452;28;20402;-75
2023/03/06 10:16:21;;;;;;;0.60;0.00;;;17.80;60.00;;;;;;5050920;28;20061;-75
2023/03/06 10:18:49;;;;;;;0.30;0.20;;;17.80;60.10;;;;;;5050749;28;20495;-75
2023/03/06 10:21:30;;;;;;;0.40;0.10;;;17.70;60.10;;;;;;5051652;28;20076;-75
2023/03/06 10:24:08;;;;;;;0.68;0.10;;;17.70;60.20;;;;;;5049956;28;20060;-75
2023/03/06 10:26:39;;;;;;;1.25;0.10;;;17.80;60.30;;;;;;5048920;28;20486;-75
2023/03/06 10:29:29;;;;;;;0.25;0.10;;;17.70;60.20;;;;;;5030799;28;20057;-75
2023/03/06 10:32:04;;;;;;;0.35;0.13;;;17.70;60.20;;;;;;5037812;28;20049;-75
2023/03/06 10:34:37;;;;;;;0.57;0.43;;;17.70;60.30;;;;;;5050812;28;20055;-75
2023/03/06 10:37:18;;;;;;;0.47;0.00;;;17.70;60.30;;;;;;5042402;28;20049;-75
2023/03/06 10:39:45;;;;;;;0.45;0.00;;;17.70;60.40;;;;;;5036220;28;20051;-76
2023/03/06 10:42:12;;;;;;;0.77;0.10;;;17.70;60.30;;;;;;5049762;28;20049;-75
2023/03/06 10:44:39;;;;;;;0.63;0.10;;;17.70;60.40;;;;;;5050761;28;20045;-75
2023/03/06 10:47:26;;;;;;;0.43;0.10;;;17.70;60.30;;;;;;5034572;28;20049;-76
2023/03/06 10:49:58;;;;;;;0.75;0.00;;;17.70;60.40;;;;;;5031322;28;20096;-75
2023/03/06 10:52:29;;;;;;;0.50;0.10;;;17.70;60.40;;;;;;5031384;28;20076;-77
2023/03/06 10:55:23;;;;;;;0.80;0.10;;;17.70;60.90;;;;;;5032596;28;20045;-74
2023/03/06 10:57:49;;;;;;;0.50;0.10;;;17.70;60.30;;;;;;5050472;28;20521;-73
2023/03/06 11:00:29;;;;;;;2.65;0.20;;;17.70;60.30;;;;;;5047532;28;20068;-77
2023/03/06 11:03:16;;;;;;;1.27;0.10;;;17.80;60.30;;;;;;5031763;28;20060;-75
2023/03/06 11:05:55;;;;;;;0.70;0.10;;;17.80;60.30;;;;;;5029908;28;20057;-72
2023/03/06 11:08:24;;;;;;;0.30;0.10;;;17.90;60.40;;;;;;5050021;28;20174;-72
2023/03/06 11:11:00;;;;;;;0.60;0.10;;;17.90;60.40;;;;;;5049282;28;20044;-74
2023/03/06 11:13:29;;;;;;;0.63;0.10;;;18.00;60.50;;;;;;5050756;28;20076;-71
2023/03/06 11:16:01;;;;;;;1.38;0.10;;;18.00;61.00;;;;;;5050052;28;20056;-71
2023/03/06 11:18:33;;;;;;;0.40;0.10;;;18.10;60.50;;;;;;5051011;28;20053;-70
2023/03/06 11:21:02;;;;;;;0.80;0.05;;;18.20;61.00;;;;;;5049740;28;20433;-70
2023/03/06 11:23:42;;;;;;;1.13;0.20;;;18.30;60.40;;;;;;5048174;28;20094;-74
2023/03/06 11:26:33;;;;;;;0.30;0.10;;;18.50;60.40;;;;;;5048849;28;20796;-74
2023/03/06 11:29:14;;;;;;;1.52;0.10;;;18.50;60.30;;;;;;5049986;28;20053;-74
2023/03/06 11:31:47;;;;;;;0.70;0.13;;;18.60;60.20;;;;;;5034088;28;20417;-75
2023/03/06 11:34:20;;;;;;;0.70;0.13;;;18.80;60.00;;;;;;5030760;28;20065;-77
2023/03/06 11:36:53;;;;;;;0.63;0.10;;;18.90;60.00;;;;;;5036969;28;20033;-76
2023/03/06 11:39:26;;;;;;;1.48;0.10;;;19.00;59.90;;;;;;5046201;28;20060;-77
2023/03/06 11:42:03;;;;;;;0.35;0.10;;;19.00;59.70;;;;;;5030939;28;20049;-77
2023/03/06 11:44:45;;;;;;;0.95;0.10;;;19.20;59.80;;;;;;5030447;28;20065;-77
2023/03/06 11:47:18;;;;;;;0.70;0.08;;;19.30;59.70;;;;;;5030790;28;20401;-72
2023/03/06 11:49:51;;;;;;;0.90;0.10;;;19.40;59.50;;;;;;5030423;28;20053;-73
2023/03/06 11:52:24;;;;;;;0.63;0.10;;;19.50;59.50;;;;;;5031278;28;20426;-73
2023/03/06 11:54:55;;;;;;;0.38;0.15;;;19.50;59.40;;;;;;5050184;28;20056;-73
2023/03/06 11:57:26;;;;;;;0.50;0.10;;;19.60;59.30;;;;;;5048931;28;20114;-72
2023/03/06 12:00:17;;;;;;;0.82;0.20;;;19.70;59.20;;;;;;5047769;28;20044;-73
2023/03/06 12:03:16;;;;;;;0.47;0.00;;;19.80;59.20;;;;;;5030799;28;20050;-73
2023/03/06 12:05:47;;;;;;;0.60;0.20;;;19.90;59.20;;;;;;5010143;28;20096;-73
2023/03/06 12:08:45;;;;;;;0.22;0.00;;;19.90;59.00;;;;;;5062575;28;20130;-73
2023/03/06 12:11:19;;;;;;;0.77;0.10;;;20.00;59.10;;;;;;5045089;28;20043;-73
2023/03/06 12:14:16;;;;;;;0.50;0.10;;;20.00;59.10;;;;;;5066090;28;20052;-73
2023/03/06 12:16:58;;;;;;;0.82;0.10;;;20.00;59.20;;;;;;5064147;28;20053;-73
2023/03/06 12:19:35;;;;;;;0.73;0.10;;;20.00;59.30;;;;;;5050838;28;20045;-73
2023/03/06 12:22:20;;;;;;;0.88;0.10;;;20.00;59.40;;;;;;5033834;28;20057;-73
2023/03/06 12:25:11;;;;;;;0.90;0.03;;;19.90;59.50;;;;;;5034713;28;20049;-73
2023/03/06 12:27:48;;;;;;;0.45;0.20;;;19.90;59.60;;;;;;5049220;28;20132;-73
2023/03/06 12:30:36;;;;;;;0.30;0.10;;;19.90;59.70;;;;;;5045644;28;20045;-75
2023/03/06 12:33:10;;;;;;;;;;;19.80;59.70;;;;;;5030334;28;20107;-75
2023/03/06 12:36:17;;;;;;;0.20;0.00;;;19.80;59.90;;;;;;5030546;28;19982;-75
2023/03/06 12:39:00;;;;;;;0.45;0.15;;;19.80;60.00;;;;;;5019502;28;20045;-75
2023/03/06 12:41:51;;;;;;;0.57;0.08;;;19.70;59.90;;;;;;5041062;28;20048;-75
2023/03/06 12:45:10;;;;;;;0.70;0.20;;;19.70;60.10;;;;;;5046854;28;20387;-75
2023/03/06 12:47:42;;;;;;;0.52;0.10;;;19.60;60.10;;;;;;5050367;28;20057;-75
2023/03/06 12:50:18;;;;;;;0.70;0.13;;;19.60;60.20;;;;;;5050250;28;20045;-75
2023/03/06 12:52:47;;;;;;;0.88;0.30;;;19.50;60.30;;;;;;5047056;28;20072;-75
2023/03/06 12:55:17;;;;;;;0.40;0.10;;;19.40;60.30;;;;;;5046852;28;20099;-75
2023/03/06 12:57:44;;;;;;;0.50;0.10;;;19.40;60.40;;;;;;5037771;28;20498;-75
2023/03/06 13:01:06;;;;;;;0.40;0.10;;;19.40;61.10;;;;;;5029256;28;20564;-75
2023/03/06 13:03:48;;;;;;;1.02;0.20;;;19.40;60.60;;;;;;5026916;28;20049;-75